ADDS METAR Data INFO
IDs: Format: Raw Decoded Include TAF

Data at: 0839 UTC 21 Oct 2017

PAGK 210753Z AUTO 35003KT 10SM OVC085 M09/M11 A2932 RMK AO2 SLP969 T10891111 TSNO
PAGK 210653Z AUTO 30003KT 10SM OVC075 M08/M10 A2932 RMK AO2 SNB18E29 SLP968 P0000 T10831100 TSNO
PAGK 210553Z AUTO 32003KT 10SM FEW041 FEW060 OVC085 M07/M09 A2931 RMK AO2 SNE03 SLP965 P0000 60000 T10721094 11033 21072 51011 TSNO
PAGK 210453Z AUTO 00000KT 5SM -SN OVC049 M07/M09 A2930 RMK AO2 SNB12 SLP960 P0000 T10671094 TSNO
PAGK 210353Z AUTO 36004KT 10SM OVC050 M07/M11 A2929 RMK AO2 SLP955 T10671111 TSNO
PAGK 210253Z AUTO 01003KT 10SM BKN085 M07/M11 A2928 RMK AO2 SLP953 T10671111 53009 TSNO
PAGK 210153Z AUTO 35005KT 10SM BKN080 M06/M12 A2927 RMK AO2 SLP947 T10561122 TSNO
PAGK 210053Z AUTO 32005KT 10SM BKN080 M04/M12 A2926 RMK AO2 SLP942 T10391122 TSNO
PAGK 202353Z AUTO 33003KT 10SM CLR M04/M13 A2925 RMK AO2 SLP939 T10391128 11033 21083 58002 TSNO
PAGK 202253Z AUTO 00000KT 10SM CLR M04/M12 A2925 RMK AO2 SLP941 T10391122 TSNO
PAGK 202153Z AUTO 25004KT 10SM CLR M04/M11 A2926 RMK AO2 SLP942 T10441111 TSNO
PAGK 202053Z AUTO 00000KT 10SM OVC065 M07/M11 A2925 RMK AO2 SLP943 T10671111 51010 TSNO
PAGK 201953Z AUTO 00000KT 10SM OVC075 M07/M12 A2925 RMK AO2 SLP941 T10721117 TSNO
PAGK 201853Z AUTO 20003KT 10SM OVC075 M08/M11 A2923 RMK AO2 SLP936 T10781111 TSNO
PAGK 201753Z AUTO 17004KT 10SM SCT065 OVC080 M08/M12 A2922 RMK AO2 SLP932 T10831122 11083 21089 53015 TSNO
PAGK 201653Z AUTO 14004KT 10SM OVC075 M08/M12 A2921 RMK AO2 SLP926 T10831122 TSNO
PAGK 201553Z AUTO 21003KT 10SM OVC080 M08/M12 A2919 RMK AO2 SLP921 T10831122 TSNO
PAGK 201453Z AUTO 14003KT 10SM SCT065 OVC080 M09/M12 A2918 RMK AO2 SLP916 T10891117 53010 TSNO
PAGK 201353Z AUTO 15003KT 10SM OVC075 M09/M12 A2917 RMK AO2 SLP911 T10891117 TSNO
PAGK 201253Z AUTO 00000KT 10SM OVC075 M08/M12 A2916 RMK AO2 SLP908 T10831122 TSNO
PAGK 201153Z AUTO 00000KT 10SM OVC075 M08/M13 A2915 RMK AO2 SLP903 T10831128 11056 21083 51008 TSNO
PAGK 201053Z AUTO 03003KT 10SM OVC075 M08/M13 A2914 RMK AO2 SLP902 T10831128 TSNO
PAGK 200953Z AUTO 02005KT 10SM OVC075 M08/M13 A2914 RMK AO2 SLP900 T10831128 TSNO
PAGK 200853Z AUTO 31005KT 10SM BKN080 M08/M14 A2912 RMK AO2 SLP896 T10781139 410221078 56002 TSNO
PAGK 200753Z AUTO 32006KT 10SM BKN075 M07/M14 A2912 RMK AO2 SLP895 T10671139 TSNO
PAGK 200653Z AUTO 33005KT 10SM OVC080 M06/M13 A2913 RMK AO2 SLP897 T10611133 TSNO
PAGK 200553Z AUTO 32007KT 10SM OVC080 M06/M13 A2913 RMK AO2 SLP898 T10561133 11022 21056 55000 TSNO
PAGK 200453Z AUTO 33006KT 10SM OVC080 M06/M13 A2913 RMK AO2 SLP898 T10561133 TSNO
PAGK 200353Z AUTO 33007KT 10SM OVC080 M05/M13 A2913 RMK AO2 SLP897 T10501133 TSNO
PAGK 200253Z AUTO 33008KT 10SM BKN048 OVC085 M04/M13 A2913 RMK AO2 SLP898 T10441128 53001 TSNO
PAGK 200153Z AUTO 34007KT 10SM OVC047 M04/M13 A2913 RMK AO2 SLP895 T10391128 TSNO
PAGK 200053Z AUTO 33009KT 10SM OVC048 M03/M12 A2912 RMK AO2 SLP894 T10331122 TSNO
PAGK 192353Z AUTO 34009G18KT 10SM OVC055 M02/M12 A2913 RMK AO2 SLP894 T10221122 11022 21061 56006 TSNO
PAGK 192253Z AUTO 34010KT 10SM OVC050 M02/M13 A2913 RMK AO2 SLP894 T10221128 TSNO
PAGK 192153Z AUTO 32008G18KT 10SM OVC050 M03/M13 A2913 RMK AO2 SLP896 T10281133 TSNO
PAGK 192053Z AUTO 31008KT 10SM BKN055 OVC090 M03/M13 A2914 RMK AO2 SLP900 T10331128 51001 TSNO